Kirov, Russia
Current Conditions -  °F | °C
As of 1:30 AM on Saturday 29 Nov 2014 (Local Time) from UWKS Reporting Station
Overcast Overcast  
Wind Chill: 13°   Ceiling: 1200
Heat Index: 19°   Visibility: 4mi
Dew Point: 18°   Wind: 4mph
Humidity: 93%   Direction: 210°SSW
Pressure: 30.68"   Gusts: NA
Location:  58.6°N, 49.66°E
Report Text: UWKS 282130Z 21002MPS 7000 BKN012 OVC066 M07/M08 Q1039 NOSIGRMK QFE764 24420058
Loading
Personal Weather Stations






























Interactive Weather Map New forecast layout! Learn more

10-Day Weather Forecast

Advertisements
Track Severe Weather on mobile